createdAt,value
2023-04-17T00:01:44.541Z,9.60
2023-04-17T00:04:12.932Z,9.50
2023-04-17T00:06:44.807Z,9.60
2023-04-17T00:09:12.479Z,9.50
2023-04-17T00:11:39.605Z,9.50
2023-04-17T00:14:07.060Z,9.50
2023-04-17T00:16:34.228Z,9.50
2023-04-17T00:19:01.872Z,9.50
2023-04-17T00:21:29.731Z,9.50
2023-04-17T00:23:57.246Z,9.50
2023-04-17T00:26:24.451Z,9.50
2023-04-17T00:28:52.160Z,9.50
2023-04-17T00:31:19.181Z,9.50
2023-04-17T00:33:46.710Z,9.50
2023-04-17T00:36:15.179Z,9.40
2023-04-17T00:38:42.614Z,9.50
2023-04-17T00:41:09.350Z,9.50
2023-04-17T00:43:36.919Z,9.40
2023-04-17T00:46:05.059Z,9.40
2023-04-17T00:48:34.058Z,9.40
2023-04-17T00:51:02.273Z,9.40
2023-04-17T00:53:33.984Z,9.30
2023-04-17T00:56:03.268Z,9.30
2023-04-17T00:58:31.126Z,9.30
2023-04-17T01:00:58.018Z,9.30
2023-04-17T01:03:25.638Z,9.30
2023-04-17T01:05:52.739Z,9.30
2023-04-17T01:08:20.135Z,9.30
2023-04-17T01:10:47.351Z,9.30
2023-04-17T01:13:14.808Z,9.30
2023-04-17T01:15:42.892Z,9.30
2023-04-17T01:18:10.344Z,9.30
2023-04-17T01:20:37.488Z,9.30
2023-04-17T01:23:04.736Z,9.30
2023-04-17T01:25:31.388Z,9.20
2023-04-17T01:27:58.702Z,9.30
2023-04-17T01:30:27.065Z,9.20
2023-04-17T01:33:03.449Z,9.20
2023-04-17T01:35:30.165Z,9.20
2023-04-17T01:37:58.018Z,9.20
2023-04-17T01:40:24.617Z,9.20
2023-04-17T01:42:51.859Z,9.20
2023-04-17T01:45:18.728Z,9.20
2023-04-17T01:47:46.163Z,9.20
2023-04-17T01:50:13.310Z,9.20
2023-04-17T01:52:40.717Z,9.10
2023-04-17T01:55:08.692Z,9.10
2023-04-17T01:57:35.951Z,9.10
2023-04-17T02:00:06.995Z,9.10
2023-04-17T02:02:39.685Z,9.10
2023-04-17T02:05:07.145Z,9.00
2023-04-17T02:07:34.341Z,9.00
2023-04-17T02:10:01.049Z,9.00
2023-04-17T02:12:28.320Z,9.00
2023-04-17T02:14:54.931Z,9.00
2023-04-17T02:17:22.162Z,9.00
2023-04-17T02:19:48.790Z,9.00
2023-04-17T02:22:16.046Z,8.90
2023-04-17T02:24:42.932Z,8.90
2023-04-17T02:27:11.131Z,8.90
2023-04-17T02:29:37.778Z,8.90
2023-04-17T02:32:05.096Z,8.90
2023-04-17T02:34:32.042Z,8.90
2023-04-17T02:36:59.475Z,8.90
2023-04-17T02:39:27.101Z,8.90
2023-04-17T02:41:54.473Z,8.90
2023-04-17T02:44:21.073Z,8.80
2023-04-17T02:46:48.339Z,8.80
2023-04-17T02:49:15.417Z,8.80
2023-04-17T02:51:42.827Z,8.80
2023-04-17T02:54:09.568Z,8.80
2023-04-17T02:56:36.552Z,8.80
2023-04-17T02:59:03.177Z,8.80
2023-04-17T03:01:30.895Z,8.80
2023-04-17T03:03:57.777Z,8.80
2023-04-17T03:06:25.175Z,8.80
2023-04-17T03:08:51.851Z,8.80
2023-04-17T03:11:19.148Z,8.80
2023-04-17T03:13:46.080Z,8.80
2023-04-17T03:16:14.103Z,8.70
2023-04-17T03:18:41.944Z,8.70
2023-04-17T03:21:09.670Z,8.70
2023-04-17T03:23:36.726Z,8.70
2023-04-17T03:26:06.216Z,8.70
2023-04-17T03:28:33.698Z,8.70
2023-04-17T03:31:02.221Z,8.70
2023-04-17T03:33:31.188Z,8.70
2023-04-17T03:35:58.850Z,8.70
2023-04-17T03:38:25.971Z,8.70
2023-04-17T03:40:54.319Z,8.70
2023-04-17T03:43:23.338Z,8.70
2023-04-17T03:45:51.434Z,8.70
2023-04-17T03:48:18.535Z,8.70
2023-04-17T03:50:48.393Z,8.70
2023-04-17T03:53:15.358Z,8.70
2023-04-17T03:55:42.816Z,8.60
2023-04-17T03:58:15.376Z,8.60
2023-04-17T04:00:42.802Z,8.70
2023-04-17T04:03:11.034Z,8.60
2023-04-17T04:05:41.741Z,8.60
2023-04-17T04:08:10.519Z,8.60
2023-04-17T04:10:46.258Z,8.70
2023-04-17T04:13:18.201Z,8.60
2023-04-17T04:15:51.711Z,8.60
2023-04-17T04:18:20.556Z,8.70
2023-04-17T04:20:48.559Z,8.60
2023-04-17T04:23:21.110Z,8.60
2023-04-17T04:25:49.986Z,8.70
2023-04-17T04:28:27.867Z,8.70
2023-04-17T04:30:55.377Z,8.60
2023-04-17T04:33:27.540Z,8.60
2023-04-17T04:35:56.327Z,8.60
2023-04-17T04:38:29.980Z,8.60
2023-04-17T04:41:06.573Z,8.60
2023-04-17T04:43:34.119Z,8.60
2023-04-17T04:46:03.974Z,8.60
2023-04-17T04:48:34.361Z,8.60
2023-04-17T04:51:01.747Z,8.60
2023-04-17T04:53:29.401Z,8.60
2023-04-17T04:55:58.304Z,8.60
2023-04-17T04:58:26.279Z,8.60
2023-04-17T05:00:56.578Z,8.50
2023-04-17T05:03:30.382Z,8.50
2023-04-17T05:05:58.897Z,8.50
2023-04-17T05:08:31.162Z,8.50
2023-04-17T05:11:06.387Z,8.50
2023-04-17T05:13:33.511Z,8.50
2023-04-17T05:16:01.962Z,8.50
2023-04-17T05:18:29.765Z,8.50
2023-04-17T05:20:56.798Z,8.50
2023-04-17T05:23:25.602Z,8.60
2023-04-17T05:25:52.870Z,8.60
2023-04-17T05:28:19.627Z,8.60
2023-04-17T05:30:48.921Z,8.60
2023-04-17T05:33:21.272Z,8.60
2023-04-17T05:35:54.070Z,8.60
2023-04-17T05:38:22.740Z,8.60
2023-04-17T05:40:50.034Z,8.60
2023-04-17T05:43:16.629Z,8.60
2023-04-17T05:45:44.999Z,8.70
2023-04-17T05:48:11.731Z,8.70
2023-04-17T05:50:39.140Z,8.70
2023-04-17T05:53:07.323Z,8.70
2023-04-17T05:55:39.855Z,8.70
2023-04-17T05:58:23.194Z,8.70
2023-04-17T06:00:53.340Z,8.70
2023-04-17T06:03:21.050Z,8.70
2023-04-17T06:05:53.992Z,8.70
2023-04-17T06:08:20.730Z,8.80
2023-04-17T06:10:50.337Z,8.80
2023-04-17T06:13:17.314Z,8.80
2023-04-17T06:15:47.713Z,8.80
2023-04-17T06:18:16.001Z,8.80
2023-04-17T06:20:43.941Z,8.90
2023-04-17T06:23:10.557Z,8.90
2023-04-17T06:25:37.988Z,8.90
2023-04-17T06:28:04.889Z,9.00
2023-04-17T06:30:31.822Z,9.00
2023-04-17T06:32:59.151Z,9.10
2023-04-17T06:35:25.787Z,9.10
2023-04-17T06:37:59.088Z,9.10
2023-04-17T06:40:26.188Z,9.20
2023-04-17T06:42:53.127Z,9.20
2023-04-17T06:45:21.665Z,9.20
2023-04-17T06:47:48.935Z,9.20
2023-04-17T06:50:18.538Z,9.20
2023-04-17T06:52:45.936Z,9.20
2023-04-17T06:55:12.598Z,9.20
2023-04-17T06:57:39.924Z,9.10
2023-04-17T07:00:07.247Z,9.10
2023-04-17T07:02:34.668Z,9.10
2023-04-17T07:05:01.549Z,9.10
2023-04-17T07:07:30.932Z,9.10
2023-04-17T07:09:57.601Z,9.10
2023-04-17T07:12:25.003Z,9.00
2023-04-17T07:14:51.607Z,9.10
2023-04-17T07:17:19.764Z,9.10
2023-04-17T07:19:46.656Z,9.10
2023-04-17T07:22:13.546Z,9.10
2023-04-17T07:24:40.218Z,9.10
2023-04-17T07:27:07.740Z,9.10
2023-04-17T07:29:34.557Z,9.20
2023-04-17T07:32:04.155Z,9.30
2023-04-17T07:34:31.868Z,9.30
2023-04-17T07:36:59.202Z,9.40
2023-04-17T07:39:28.508Z,9.50
2023-04-17T07:41:56.482Z,9.50
2023-04-17T07:44:23.168Z,9.50
2023-04-17T07:46:50.537Z,9.60
2023-04-17T07:49:17.455Z,9.60
2023-04-17T07:51:45.132Z,9.70
2023-04-17T07:54:12.042Z,9.70
2023-04-17T07:56:39.723Z,9.80
2023-04-17T07:59:06.361Z,9.90
2023-04-17T08:01:34.066Z,9.80
2023-04-17T08:04:01.172Z,9.80
2023-04-17T08:06:28.831Z,9.80
2023-04-17T08:08:55.565Z,9.80
2023-04-17T08:11:22.822Z,9.80
2023-04-17T08:13:49.734Z,9.80
2023-04-17T08:16:17.337Z,9.80
2023-04-17T08:18:44.140Z,9.80
2023-04-17T08:21:11.474Z,9.80
2023-04-17T08:23:38.093Z,9.80
2023-04-17T08:26:05.349Z,9.80
2023-04-17T08:28:32.099Z,9.80
2023-04-17T08:30:59.666Z,9.90
2023-04-17T08:33:26.955Z,9.90
2023-04-17T08:35:54.379Z,10.00
2023-04-17T08:38:21.214Z,10.10
2023-04-17T08:40:52.327Z,10.30
2023-04-17T08:43:20.859Z,10.50
2023-04-17T08:45:54.032Z,10.60
2023-04-17T08:48:24.700Z,10.70
2023-04-17T08:50:53.486Z,10.80
2023-04-17T08:53:21.036Z,10.80
2023-04-17T08:55:48.826Z,10.80
2023-04-17T08:58:15.872Z,10.80
2023-04-17T09:00:45.324Z,10.80
2023-04-17T09:03:13.219Z,10.90
2023-04-17T09:05:43.481Z,10.90
2023-04-17T09:08:17.229Z,10.90
2023-04-17T09:10:54.095Z,11.00
2023-04-17T09:13:24.772Z,10.90
2023-04-17T09:16:20.327Z,11.00
2023-04-17T09:18:47.795Z,11.30
2023-04-17T09:21:18.215Z,11.50
2023-04-17T09:23:54.339Z,11.90
2023-04-17T09:26:24.219Z,12.10
2023-04-17T09:29:04.247Z,12.10
2023-04-17T09:31:32.426Z,12.40
2023-04-17T09:34:07.257Z,12.50
2023-04-17T09:36:37.092Z,12.60
2023-04-17T09:39:06.232Z,12.70
2023-04-17T09:41:39.416Z,13.00
2023-04-17T09:44:06.228Z,12.90
2023-04-17T09:46:43.038Z,13.20
2023-04-17T09:49:15.680Z,13.30
2023-04-17T09:51:42.972Z,13.30
2023-04-17T09:54:11.339Z,13.10
2023-04-17T09:56:39.270Z,12.90
2023-04-17T09:59:07.166Z,12.80
2023-04-17T10:01:36.472Z,12.70
2023-04-17T10:04:04.619Z,12.90
2023-04-17T10:06:33.279Z,13.10
2023-04-17T10:09:00.412Z,13.10
2023-04-17T10:11:36.293Z,13.10
2023-04-17T10:14:26.271Z,13.20
2023-04-17T10:16:55.011Z,13.30
2023-04-17T10:19:31.099Z,13.20
2023-04-17T10:22:19.846Z,13.20
2023-04-17T10:25:15.599Z,13.20
2023-04-17T10:27:45.619Z,13.20
2023-04-17T10:30:14.021Z,13.10
2023-04-17T10:33:13.357Z,13.30
2023-04-17T10:35:40.836Z,13.80
2023-04-17T10:38:08.638Z,14.20
2023-04-17T10:40:37.326Z,14.60
2023-04-17T10:43:25.100Z,14.70
2023-04-17T10:46:04.056Z,15.10
2023-04-17T10:48:34.670Z,15.40
2023-04-17T10:51:25.129Z,15.30
2023-04-17T10:53:56.836Z,15.40
2023-04-17T10:56:30.905Z,15.30
2023-04-17T10:59:01.797Z,15.60
2023-04-17T11:01:37.698Z,15.60
2023-04-17T11:04:04.908Z,15.30
2023-04-17T11:06:33.344Z,15.20
2023-04-17T11:09:00.392Z,15.00
2023-04-17T11:11:40.482Z,14.90
2023-04-17T11:14:17.511Z,14.80
2023-04-17T11:16:47.481Z,14.60
2023-04-17T11:19:21.172Z,14.50
2023-04-17T11:21:50.501Z,14.60
2023-04-17T11:24:28.314Z,14.60
2023-04-17T11:26:57.962Z,14.60
2023-04-17T11:29:25.148Z,14.80
2023-04-17T11:31:54.785Z,15.20
2023-04-17T11:34:22.256Z,15.30
2023-04-17T11:37:00.433Z,15.20
2023-04-17T11:39:30.410Z,15.30
2023-04-17T11:41:58.132Z,15.10
2023-04-17T11:44:25.669Z,15.20
2023-04-17T11:46:59.183Z,15.30
2023-04-17T11:49:37.371Z,15.50
2023-04-17T11:52:05.891Z,15.80
2023-04-17T11:54:37.641Z,15.90
2023-04-17T11:57:23.167Z,15.80
2023-04-17T11:59:49.854Z,15.60
2023-04-17T12:02:17.290Z,15.40
2023-04-17T12:04:44.164Z,15.40
2023-04-17T12:07:25.960Z,15.70
2023-04-17T12:09:57.554Z,16.00
2023-04-17T12:12:24.804Z,16.20
2023-04-17T12:14:51.396Z,16.20
2023-04-17T12:17:18.750Z,16.20
2023-04-17T12:19:45.474Z,16.30
2023-04-17T12:22:12.883Z,16.20
2023-04-17T12:24:39.572Z,16.20
2023-04-17T12:27:06.873Z,15.90
2023-04-17T12:29:43.872Z,15.90
2023-04-17T12:32:12.413Z,15.90
2023-04-17T12:34:39.339Z,16.00
2023-04-17T12:37:06.592Z,16.20
2023-04-17T12:39:33.298Z,16.20
2023-04-17T12:42:00.535Z,16.20
2023-04-17T12:44:27.276Z,16.20
2023-04-17T12:46:54.721Z,16.00
2023-04-17T12:49:23.363Z,15.80
2023-04-17T12:51:51.615Z,15.60
2023-04-17T12:54:18.466Z,15.70
2023-04-17T12:56:45.429Z,15.80
2023-04-17T12:59:12.055Z,15.70
2023-04-17T13:01:39.307Z,15.50
2023-04-17T13:04:06.264Z,15.40
2023-04-17T13:06:33.865Z,15.40
2023-04-17T13:09:00.528Z,15.50
2023-04-17T13:11:27.771Z,15.70
2023-04-17T13:13:54.359Z,15.90
2023-04-17T13:16:21.733Z,15.90
2023-04-17T13:18:48.365Z,16.00
2023-04-17T13:21:15.583Z,16.10
2023-04-17T13:23:42.177Z,16.30
2023-04-17T13:26:09.427Z,16.30
2023-04-17T13:28:36.039Z,16.60
2023-04-17T13:31:03.350Z,16.70
2023-04-17T13:33:30.031Z,16.90
2023-04-17T13:35:57.328Z,16.90
2023-04-17T13:38:23.901Z,16.80
2023-04-17T13:40:51.328Z,16.70
2023-04-17T13:43:18.000Z,16.70
2023-04-17T13:45:45.282Z,16.70
2023-04-17T13:48:11.930Z,16.60
2023-04-17T13:50:39.364Z,16.60
2023-04-17T13:53:06.026Z,16.60
2023-04-17T13:55:33.320Z,16.70
2023-04-17T13:58:00.968Z,16.60
2023-04-17T14:00:27.923Z,16.40
2023-04-17T14:02:54.662Z,16.40
2023-04-17T14:05:22.145Z,16.30
2023-04-17T14:07:48.766Z,16.20
2023-04-17T14:10:16.008Z,16.20
2023-04-17T14:12:42.630Z,16.30
2023-04-17T14:15:10.448Z,16.40
2023-04-17T14:17:40.869Z,16.40
2023-04-17T14:20:09.412Z,16.40
2023-04-17T14:22:36.484Z,16.50
2023-04-17T14:25:04.158Z,16.50
2023-04-17T14:27:30.806Z,16.40
2023-04-17T14:29:59.977Z,16.50
2023-04-17T14:32:27.893Z,16.50
2023-04-17T14:34:55.854Z,16.20
2023-04-17T14:37:22.539Z,16.10
2023-04-17T14:39:49.840Z,16.10
2023-04-17T14:42:16.552Z,16.20
2023-04-17T14:44:44.300Z,16.50
2023-04-17T14:47:12.893Z,16.60
2023-04-17T14:49:40.378Z,16.90
2023-04-17T14:52:07.031Z,17.10
2023-04-17T14:54:34.534Z,17.20
2023-04-17T14:57:01.436Z,17.20
2023-04-17T14:59:28.910Z,16.90
2023-04-17T15:01:55.713Z,16.50
2023-04-17T15:04:23.231Z,16.20
2023-04-17T15:06:49.900Z,16.10
2023-04-17T15:09:16.884Z,15.90
2023-04-17T15:11:43.590Z,15.90
2023-04-17T15:14:11.277Z,15.80
2023-04-17T15:16:38.001Z,15.70
2023-04-17T15:19:04.597Z,15.70
2023-04-17T15:21:31.256Z,15.60
2023-04-17T15:23:58.577Z,15.50
2023-04-17T15:26:25.638Z,15.30
2023-04-17T15:28:52.253Z,15.30
2023-04-17T15:31:18.911Z,15.40
2023-04-17T15:33:47.578Z,15.40
2023-04-17T15:36:14.462Z,15.40
2023-04-17T15:38:41.677Z,15.30
2023-04-17T15:41:10.158Z,15.30
2023-04-17T15:43:38.148Z,15.20
2023-04-17T15:46:05.335Z,15.20
2023-04-17T15:48:33.001Z,15.30
2023-04-17T15:51:02.302Z,15.30
2023-04-17T15:53:29.619Z,15.30
2023-04-17T15:55:56.400Z,15.30
2023-04-17T15:58:23.687Z,15.40
2023-04-17T16:00:50.462Z,15.30
2023-04-17T16:03:17.794Z,15.30
2023-04-17T16:05:44.646Z,15.20
2023-04-17T16:08:11.592Z,15.20
2023-04-17T16:10:38.248Z,15.20
2023-04-17T16:13:05.350Z,15.10
2023-04-17T16:15:32.666Z,15.10
2023-04-17T16:18:00.233Z,15.20
2023-04-17T16:20:27.692Z,15.20
2023-04-17T16:22:54.341Z,15.20
2023-04-17T16:25:21.313Z,15.20
2023-04-17T16:27:47.911Z,15.20
2023-04-17T16:30:15.170Z,15.20
2023-04-17T16:32:43.159Z,15.20
2023-04-17T16:35:10.340Z,15.30
2023-04-17T16:37:37.304Z,15.40
2023-04-17T16:40:05.307Z,15.40
2023-04-17T16:42:32.728Z,15.30
2023-04-17T16:45:00.512Z,15.20
2023-04-17T16:47:30.837Z,15.10
2023-04-17T16:49:57.984Z,15.00
2023-04-17T16:52:24.857Z,14.90
2023-04-17T16:54:52.152Z,14.80
2023-04-17T16:57:18.750Z,14.80
2023-04-17T16:59:46.107Z,14.70
2023-04-17T17:02:13.740Z,14.70
2023-04-17T17:04:41.186Z,14.70
2023-04-17T17:07:08.004Z,14.60
2023-04-17T17:09:35.326Z,14.60
2023-04-17T17:12:02.017Z,14.50
2023-04-17T17:14:29.333Z,14.40
2023-04-17T17:16:55.984Z,14.40
2023-04-17T17:19:23.301Z,14.40
2023-04-17T17:21:49.904Z,14.40
2023-04-17T17:24:17.130Z,14.30
2023-04-17T17:26:43.743Z,14.20
2023-04-17T17:29:11.276Z,14.20
2023-04-17T17:31:38.239Z,14.10
2023-04-17T17:34:22.635Z,14.00
2023-04-17T17:36:52.659Z,14.00
2023-04-17T17:39:21.409Z,13.90
2023-04-17T17:41:48.375Z,13.90
2023-04-17T17:44:15.798Z,13.80
2023-04-17T17:46:42.685Z,13.80
2023-04-17T17:49:10.274Z,13.80
2023-04-17T17:51:36.927Z,13.80
2023-04-17T17:54:04.275Z,13.70
2023-04-17T17:56:31.075Z,13.70
2023-04-17T17:58:58.436Z,13.70
2023-04-17T18:01:25.380Z,13.60
2023-04-17T18:03:53.687Z,13.50
2023-04-17T18:06:21.106Z,13.40
2023-04-17T18:08:48.320Z,13.40
2023-04-17T18:11:15.793Z,13.30
2023-04-17T18:13:42.458Z,13.20
2023-04-17T18:16:10.106Z,13.10
2023-04-17T18:18:37.034Z,13.10
2023-04-17T18:21:08.342Z,13.00
2023-04-17T18:23:35.522Z,12.90
2023-04-17T18:26:03.292Z,12.80
2023-04-17T18:28:30.925Z,12.80
2023-04-17T18:30:57.749Z,12.70
2023-04-17T18:33:24.792Z,12.70
2023-04-17T18:35:52.195Z,12.60
2023-04-17T18:38:18.895Z,12.50
2023-04-17T18:40:46.171Z,12.40
2023-04-17T18:43:12.858Z,12.30
2023-04-17T18:45:39.803Z,12.20
2023-04-17T18:48:06.507Z,12.20
2023-04-17T18:50:33.799Z,12.20
2023-04-17T18:53:00.590Z,12.10
2023-04-17T18:55:27.191Z,12.00
2023-04-17T18:57:53.782Z,12.00
2023-04-17T19:00:21.138Z,12.00
2023-04-17T19:02:48.062Z,12.00
2023-04-17T19:05:15.409Z,11.90
2023-04-17T19:07:42.071Z,11.80
2023-04-17T19:10:10.083Z,11.80
2023-04-17T19:12:36.799Z,11.70
2023-04-17T19:15:04.660Z,11.70
2023-04-17T19:17:31.379Z,11.60
2023-04-17T19:19:58.358Z,11.60
2023-04-17T19:22:25.061Z,11.40
2023-04-17T19:24:53.147Z,11.30
2023-04-17T19:27:20.281Z,11.30
2023-04-17T19:29:47.382Z,11.30
2023-04-17T19:32:16.309Z,11.30
2023-04-17T19:34:44.182Z,11.20
2023-04-17T19:37:10.908Z,11.20
2023-04-17T19:39:37.847Z,11.10
2023-04-17T19:42:05.429Z,11.10
2023-04-17T19:44:32.586Z,11.00
2023-04-17T19:46:59.316Z,11.00
2023-04-17T19:49:26.632Z,10.90
2023-04-17T19:51:53.276Z,10.90
2023-04-17T19:54:20.583Z,10.80
2023-04-17T19:56:47.365Z,10.80
2023-04-17T19:59:14.750Z,10.80
2023-04-17T20:01:43.810Z,10.80
2023-04-17T20:04:11.064Z,10.80
2023-04-17T20:06:39.368Z,10.80
2023-04-17T20:09:06.863Z,10.70
2023-04-17T20:11:33.901Z,10.70
2023-04-17T20:14:00.930Z,10.60
2023-04-17T20:16:27.627Z,10.60
2023-04-17T20:18:56.868Z,10.60
2023-04-17T20:21:24.012Z,10.60
2023-04-17T20:23:51.343Z,10.60
2023-04-17T20:26:18.258Z,10.50
2023-04-17T20:28:45.416Z,10.50
2023-04-17T20:31:12.131Z,10.50
2023-04-17T20:33:39.301Z,10.50
2023-04-17T20:36:06.071Z,10.60
2023-04-17T20:38:33.445Z,10.60
2023-04-17T20:41:00.173Z,10.60
2023-04-17T20:43:27.103Z,10.50
2023-04-17T20:45:53.748Z,10.50
2023-04-17T20:48:21.558Z,10.50
2023-04-17T20:50:48.196Z,10.50
2023-04-17T20:53:15.427Z,10.50
2023-04-17T20:55:42.126Z,10.50
2023-04-17T20:58:09.685Z,10.40
2023-04-17T21:00:38.464Z,10.50
2023-04-17T21:03:09.098Z,10.40
2023-04-17T21:05:35.821Z,10.50
2023-04-17T21:08:03.057Z,10.50
2023-04-17T21:10:29.670Z,10.50
2023-04-17T21:12:56.724Z,10.60
2023-04-17T21:15:23.325Z,10.50
2023-04-17T21:17:50.334Z,10.50
2023-04-17T21:20:16.974Z,10.50
2023-04-17T21:22:43.593Z,10.40
2023-04-17T21:25:11.091Z,10.40
2023-04-17T21:27:39.305Z,10.50
2023-04-17T21:30:07.973Z,10.40
2023-04-17T21:32:34.816Z,10.40
2023-04-17T21:35:01.448Z,10.40
2023-04-17T21:37:28.727Z,10.30
2023-04-17T21:39:55.709Z,10.40
2023-04-17T21:42:24.591Z,10.30
2023-04-17T21:44:51.293Z,10.30
2023-04-17T21:47:19.756Z,10.30
2023-04-17T21:49:49.702Z,10.30
2023-04-17T21:52:17.114Z,10.20
2023-04-17T21:54:43.812Z,10.20
2023-04-17T21:57:11.185Z,10.10
2023-04-17T21:59:37.871Z,10.00
2023-04-17T22:02:05.199Z,9.90
2023-04-17T22:04:32.004Z,9.90
2023-04-17T22:06:58.989Z,9.90
2023-04-17T22:09:27.741Z,9.80
2023-04-17T22:11:56.671Z,9.80
2023-04-17T22:14:23.327Z,9.70
2023-04-17T22:16:50.742Z,9.70
2023-04-17T22:19:17.367Z,9.70
2023-04-17T22:21:44.594Z,9.60
2023-04-17T22:24:11.481Z,9.60
2023-04-17T22:26:38.530Z,9.40
2023-04-17T22:29:05.217Z,9.40
2023-04-17T22:31:32.541Z,9.40
2023-04-17T22:33:59.364Z,9.40
2023-04-17T22:36:26.600Z,9.40
2023-04-17T22:38:53.163Z,9.40
2023-04-17T22:41:20.487Z,9.40
2023-04-17T22:43:50.227Z,9.40
2023-04-17T22:46:17.503Z,9.40
2023-04-17T22:48:46.986Z,9.30
2023-04-17T22:51:15.212Z,9.30
2023-04-17T22:53:42.433Z,9.20
2023-04-17T22:56:12.115Z,9.20
2023-04-17T22:58:38.893Z,9.20
2023-04-17T23:01:06.109Z,9.10
2023-04-17T23:03:34.035Z,9.10
2023-04-17T23:06:01.045Z,9.10
2023-04-17T23:08:30.156Z,9.00
2023-04-17T23:10:59.956Z,8.90
2023-04-17T23:13:27.780Z,8.80
2023-04-17T23:15:54.811Z,8.80
2023-04-17T23:18:21.724Z,8.80
2023-04-17T23:20:49.238Z,8.80
2023-04-17T23:23:16.343Z,8.80
2023-04-17T23:25:43.643Z,8.80
2023-04-17T23:28:10.390Z,8.80
2023-04-17T23:30:37.709Z,8.70
2023-04-17T23:33:04.441Z,8.60
2023-04-17T23:35:31.491Z,8.60
2023-04-17T23:37:58.081Z,8.60
2023-04-17T23:40:26.127Z,8.50
2023-04-17T23:42:53.530Z,8.50
2023-04-17T23:45:20.821Z,8.50
2023-04-17T23:47:47.661Z,8.50
2023-04-17T23:50:14.681Z,8.50
2023-04-17T23:52:41.315Z,8.50
2023-04-17T23:55:08.862Z,8.50
2023-04-17T23:57:37.706Z,8.40
